createdAt,value
2023-04-27T00:01:23.449Z,4.91
2023-04-27T00:03:51.194Z,4.94
2023-04-27T00:06:18.930Z,4.94
2023-04-27T00:08:46.820Z,4.91
2023-04-27T00:11:14.728Z,4.84
2023-04-27T00:13:42.686Z,4.78
2023-04-27T00:16:10.432Z,4.73
2023-04-27T00:18:38.209Z,4.73
2023-04-27T00:21:05.857Z,4.76
2023-04-27T00:23:33.742Z,4.79
2023-04-27T00:26:01.809Z,4.80
2023-04-27T00:28:29.661Z,4.80
2023-04-27T00:30:59.474Z,4.76
2023-04-27T00:33:28.125Z,4.67
2023-04-27T00:36:02.505Z,4.54
2023-04-27T00:38:31.116Z,4.45
2023-04-27T00:41:05.588Z,4.36
2023-04-27T00:43:35.917Z,4.34
2023-04-27T00:46:04.250Z,4.31
2023-04-27T00:48:32.025Z,4.28
2023-04-27T00:51:00.515Z,4.25
2023-04-27T00:53:30.522Z,4.22
2023-04-27T00:55:58.400Z,4.21
2023-04-27T00:58:26.472Z,4.19
2023-04-27T01:00:54.220Z,4.19
2023-04-27T01:03:22.962Z,4.16
2023-04-27T01:05:51.328Z,4.15
2023-04-27T01:08:18.979Z,4.09
2023-04-27T01:10:48.807Z,4.09
2023-04-27T01:13:16.538Z,4.08
2023-04-27T01:15:44.243Z,4.05
2023-04-27T01:18:12.122Z,4.01
2023-04-27T01:20:41.763Z,4.00
2023-04-27T01:23:17.100Z,4.00
2023-04-27T01:25:45.246Z,3.95
2023-04-27T01:28:13.033Z,3.90
2023-04-27T01:30:40.763Z,3.86
2023-04-27T01:33:08.866Z,3.82
2023-04-27T01:35:36.690Z,3.80
2023-04-27T01:38:04.579Z,3.79
2023-04-27T01:40:32.272Z,3.75
2023-04-27T01:43:00.525Z,3.72
2023-04-27T01:45:29.204Z,3.71
2023-04-27T01:47:57.057Z,3.65
2023-04-27T01:50:24.827Z,3.54
2023-04-27T01:52:52.581Z,3.49
2023-04-27T01:55:20.507Z,3.45
2023-04-27T01:57:48.540Z,3.42
2023-04-27T02:00:17.219Z,3.40
2023-04-27T02:02:53.842Z,3.37
2023-04-27T02:05:26.314Z,3.31
2023-04-27T02:07:54.182Z,3.30
2023-04-27T02:10:23.454Z,3.27
2023-04-27T02:12:52.921Z,3.25
2023-04-27T02:15:20.925Z,3.19
2023-04-27T02:17:50.041Z,3.05
2023-04-27T02:20:18.205Z,2.91
2023-04-27T02:22:45.994Z,2.82
2023-04-27T02:25:13.766Z,2.74
2023-04-27T02:27:43.308Z,2.70
2023-04-27T02:30:12.666Z,2.64
2023-04-27T02:32:42.085Z,2.58
2023-04-27T02:35:10.758Z,2.55
2023-04-27T02:37:38.793Z,2.49
2023-04-27T02:40:10.953Z,2.44
2023-04-27T02:42:39.289Z,2.40
2023-04-27T02:45:10.713Z,2.38
2023-04-27T02:47:38.487Z,2.38
2023-04-27T02:50:07.552Z,2.39
2023-04-27T02:52:35.822Z,2.41
2023-04-27T02:55:03.708Z,2.39
2023-04-27T02:57:31.454Z,2.41
2023-04-27T02:59:59.130Z,2.44
2023-04-27T03:02:27.242Z,2.43
2023-04-27T03:04:55.582Z,2.41
2023-04-27T03:07:23.381Z,2.41
2023-04-27T03:09:51.328Z,2.39
2023-04-27T03:12:19.221Z,2.41
2023-04-27T03:14:49.227Z,2.38
2023-04-27T03:17:16.878Z,2.40
2023-04-27T03:19:44.527Z,2.44
2023-04-27T03:22:12.119Z,2.43
2023-04-27T03:24:39.701Z,2.43
2023-04-27T03:27:07.671Z,2.42
2023-04-27T03:29:37.133Z,2.39
2023-04-27T03:32:06.511Z,2.38
2023-04-27T03:34:34.232Z,2.37
2023-04-27T03:37:02.457Z,2.37
2023-04-27T03:39:30.293Z,2.35
2023-04-27T03:41:58.726Z,2.37
2023-04-27T03:44:26.520Z,2.34
2023-04-27T03:46:54.354Z,2.33
2023-04-27T03:49:22.521Z,2.33
2023-04-27T03:51:51.103Z,2.34
2023-04-27T03:54:18.902Z,2.39
2023-04-27T03:56:47.404Z,2.40
2023-04-27T03:59:15.803Z,2.39
2023-04-27T04:01:45.526Z,2.41
2023-04-27T04:04:14.806Z,2.44
2023-04-27T04:06:43.092Z,2.47
2023-04-27T04:09:13.134Z,2.50
2023-04-27T04:11:41.374Z,2.52
2023-04-27T04:14:10.914Z,2.57
2023-04-27T04:16:38.905Z,2.61
2023-04-27T04:19:06.785Z,2.72
2023-04-27T04:21:35.146Z,2.84
2023-04-27T04:24:03.621Z,2.83
2023-04-27T04:26:31.972Z,2.82
2023-04-27T04:29:00.669Z,3.01
2023-04-27T04:31:29.270Z,4.24
2023-04-27T04:34:09.823Z,5.56
2023-04-27T04:36:38.059Z,6.78
2023-04-27T04:39:06.310Z,8.04
2023-04-27T04:41:34.799Z,9.12
2023-04-27T04:44:05.840Z,10.08
2023-04-27T04:46:36.874Z,10.73
2023-04-27T04:49:07.378Z,11.38
2023-04-27T04:51:35.194Z,11.99
2023-04-27T04:54:05.131Z,12.41
2023-04-27T04:56:37.618Z,12.82
2023-04-27T04:59:06.113Z,13.29
2023-04-27T05:01:33.794Z,13.60
2023-04-27T05:04:03.203Z,13.77
2023-04-27T05:06:31.794Z,13.95
2023-04-27T05:09:00.058Z,14.13
2023-04-27T05:11:36.096Z,14.19
2023-04-27T05:14:03.769Z,14.26
2023-04-27T05:16:31.754Z,14.29
2023-04-27T05:19:00.623Z,14.48
2023-04-27T05:21:28.403Z,14.52
2023-04-27T05:23:55.935Z,14.44
2023-04-27T05:26:23.557Z,14.32
2023-04-27T05:28:51.385Z,14.21
2023-04-27T05:31:19.258Z,13.90
2023-04-27T05:33:46.789Z,13.61
2023-04-27T05:36:14.731Z,13.55
2023-04-27T05:39:00.797Z,13.45
2023-04-27T05:41:30.015Z,13.55
2023-04-27T05:44:07.957Z,13.41
2023-04-27T05:46:38.415Z,13.30
2023-04-27T05:49:05.339Z,13.65
2023-04-27T05:51:33.545Z,13.68
2023-04-27T05:54:01.565Z,13.18
2023-04-27T05:56:29.418Z,12.71
2023-04-27T05:58:57.026Z,12.42
2023-04-27T06:01:24.794Z,12.07
2023-04-27T06:03:52.826Z,12.14
2023-04-27T06:06:21.035Z,12.20
2023-04-27T06:08:48.674Z,12.15
2023-04-27T06:11:16.704Z,12.23
2023-04-27T06:13:44.502Z,12.15
2023-04-27T06:16:12.916Z,12.17
2023-04-27T06:18:41.133Z,12.79
2023-04-27T06:21:08.895Z,13.74
2023-04-27T06:23:36.900Z,14.54
2023-04-27T06:26:04.928Z,15.06
2023-04-27T06:28:33.491Z,15.62
2023-04-27T06:31:01.476Z,16.18
2023-04-27T06:33:32.090Z,16.45
2023-04-27T06:36:02.266Z,16.67
2023-04-27T06:38:30.520Z,17.05
2023-04-27T06:40:58.853Z,17.33
2023-04-27T06:43:26.820Z,17.25
2023-04-27T06:45:54.681Z,17.29
2023-04-27T06:48:22.203Z,17.34
2023-04-27T06:50:50.469Z,17.38
2023-04-27T06:53:18.421Z,17.30
2023-04-27T06:55:48.380Z,17.18
2023-04-27T06:58:16.230Z,17.11
2023-04-27T07:00:44.021Z,16.99
2023-04-27T07:03:11.960Z,16.72
2023-04-27T07:05:39.898Z,16.85
2023-04-27T07:08:08.731Z,16.85
2023-04-27T07:10:36.905Z,16.77
2023-04-27T07:13:06.344Z,16.73
2023-04-27T07:15:34.516Z,16.62
2023-04-27T07:18:02.364Z,16.62
2023-04-27T07:20:30.664Z,16.58
2023-04-27T07:22:58.516Z,16.47
2023-04-27T07:25:26.122Z,16.57
2023-04-27T07:27:54.696Z,16.59
2023-04-27T07:30:24.008Z,16.66
2023-04-27T07:32:54.214Z,16.73
2023-04-27T07:35:22.006Z,16.59
2023-04-27T07:37:50.812Z,16.58
2023-04-27T07:40:21.684Z,16.19
2023-04-27T07:42:50.591Z,15.75
2023-04-27T07:45:18.224Z,15.59
2023-04-27T07:47:46.133Z,15.21
2023-04-27T07:50:15.799Z,14.84
2023-04-27T07:52:43.946Z,14.63
2023-04-27T07:55:11.756Z,14.80
2023-04-27T07:57:39.289Z,14.94
2023-04-27T08:00:10.426Z,14.94
2023-04-27T08:02:40.077Z,15.23
2023-04-27T08:05:09.053Z,15.49
2023-04-27T08:07:42.526Z,15.58
2023-04-27T08:10:08.258Z,15.65
2023-04-27T08:12:39.219Z,15.77
2023-04-27T08:15:08.186Z,15.64
2023-04-27T08:17:36.699Z,15.01
2023-04-27T08:20:06.693Z,14.45
2023-04-27T08:22:34.265Z,13.79
2023-04-27T08:25:03.798Z,13.38
2023-04-27T08:27:32.803Z,12.94
2023-04-27T08:30:01.173Z,12.73
2023-04-27T08:32:29.080Z,12.66
2023-04-27T08:34:58.892Z,12.61
2023-04-27T08:37:27.971Z,12.54
2023-04-27T08:39:56.455Z,12.63
2023-04-27T08:42:24.679Z,12.76
2023-04-27T08:44:53.392Z,12.96
2023-04-27T08:47:28.387Z,13.07
2023-04-27T08:49:53.754Z,13.41
2023-04-27T08:52:21.696Z,13.66
2023-04-27T08:54:49.386Z,14.00
2023-04-27T08:57:17.206Z,14.16
2023-04-27T08:59:45.455Z,14.36
2023-04-27T09:02:20.864Z,14.64
2023-04-27T09:04:48.648Z,14.60
2023-04-27T09:07:18.257Z,14.64
2023-04-27T09:09:47.966Z,14.67
2023-04-27T09:12:20.872Z,14.73
2023-04-27T09:15:05.929Z,14.68
2023-04-27T09:17:33.685Z,14.66
2023-04-27T09:20:12.037Z,14.95
2023-04-27T09:22:47.988Z,14.89
2023-04-27T09:25:33.426Z,14.75
2023-04-27T09:28:01.857Z,14.63
2023-04-27T09:30:30.286Z,14.31
2023-04-27T09:33:02.128Z,13.99
2023-04-27T09:35:32.858Z,13.78
2023-04-27T09:38:01.187Z,13.62
2023-04-27T09:40:31.467Z,13.42
2023-04-27T09:43:05.594Z,13.17
2023-04-27T09:45:35.992Z,13.00
2023-04-27T09:48:05.773Z,12.97
2023-04-27T09:50:43.242Z,12.79
2023-04-27T09:53:15.177Z,12.70
2023-04-27T09:55:57.465Z,12.55
2023-04-27T09:58:50.924Z,12.40
2023-04-27T10:01:46.825Z,12.02
2023-04-27T10:04:52.099Z,11.90
2023-04-27T10:07:20.592Z,12.36
2023-04-27T10:09:51.719Z,12.34
2023-04-27T10:12:29.941Z,12.17
2023-04-27T10:15:01.716Z,12.04
2023-04-27T10:17:35.812Z,11.86
2023-04-27T10:20:08.456Z,11.77
2023-04-27T10:22:49.769Z,11.81
2023-04-27T10:25:25.991Z,11.91
2023-04-27T10:28:01.663Z,11.89
2023-04-27T10:30:39.692Z,11.90
2023-04-27T10:33:14.384Z,12.00
2023-04-27T10:35:46.667Z,11.87
2023-04-27T10:38:22.163Z,11.74
2023-04-27T10:41:01.740Z,11.60
2023-04-27T10:43:34.064Z,11.42
2023-04-27T10:46:14.744Z,11.37
2023-04-27T10:48:43.680Z,11.36
2023-04-27T10:51:16.959Z,11.22
2023-04-27T10:53:48.648Z,11.13
2023-04-27T10:56:19.038Z,10.99
2023-04-27T10:58:56.922Z,10.92
2023-04-27T11:01:33.957Z,10.89
2023-04-27T11:04:10.127Z,10.89
2023-04-27T11:06:49.333Z,10.91
2023-04-27T11:09:28.070Z,10.82
2023-04-27T11:11:56.174Z,10.93
2023-04-27T11:14:24.208Z,11.09
2023-04-27T11:16:52.836Z,11.06
2023-04-27T11:19:20.820Z,11.09
2023-04-27T11:21:49.585Z,11.20
2023-04-27T11:24:17.321Z,11.29
2023-04-27T11:26:51.912Z,11.36
2023-04-27T11:29:19.940Z,11.37
2023-04-27T11:31:50.919Z,11.45
2023-04-27T11:34:22.852Z,11.54
2023-04-27T11:39:38.421Z,11.67
2023-04-27T11:42:25.413Z,11.74
2023-04-27T11:45:02.320Z,11.78
2023-04-27T11:47:33.178Z,11.88
2023-04-27T11:50:05.256Z,11.96
2023-04-27T11:52:39.638Z,12.02
2023-04-27T11:55:11.287Z,11.88
2023-04-27T11:57:39.622Z,11.81
2023-04-27T12:00:13.521Z,11.79
2023-04-27T12:02:42.808Z,11.68
2023-04-27T12:05:12.587Z,11.60
2023-04-27T12:07:42.831Z,11.59
2023-04-27T12:10:11.717Z,11.55
2023-04-27T12:12:45.971Z,11.60
2023-04-27T12:15:17.217Z,11.67
2023-04-27T12:17:54.458Z,11.84
2023-04-27T12:20:23.221Z,11.85
2023-04-27T12:22:54.335Z,11.91
2023-04-27T12:25:22.168Z,11.99
2023-04-27T12:27:49.740Z,12.02
2023-04-27T12:30:17.894Z,12.12
2023-04-27T12:32:46.203Z,12.21
2023-04-27T12:35:14.326Z,12.30
2023-04-27T12:37:42.134Z,12.41
2023-04-27T12:40:10.587Z,12.41
2023-04-27T12:42:39.378Z,12.38
2023-04-27T12:45:08.199Z,12.52
2023-04-27T12:50:06.689Z,12.62
2023-04-27T12:52:34.512Z,12.49
2023-04-27T12:55:02.475Z,12.48
2023-04-27T12:57:30.061Z,12.40
2023-04-27T13:00:01.542Z,12.38
2023-04-27T13:02:27.278Z,12.32
2023-04-27T13:04:56.073Z,12.35
2023-04-27T13:07:23.909Z,12.40
2023-04-27T13:09:51.435Z,12.29
2023-04-27T13:12:19.195Z,12.19
2023-04-27T13:14:47.061Z,12.09
2023-04-27T13:17:14.704Z,11.92
2023-04-27T13:19:42.511Z,11.86
2023-04-27T13:22:10.136Z,11.84
2023-04-27T13:24:37.946Z,11.73
2023-04-27T13:27:05.430Z,11.67
2023-04-27T13:29:34.851Z,11.54
2023-04-27T13:32:04.674Z,11.49
2023-04-27T13:34:32.752Z,11.37
2023-04-27T13:37:00.455Z,11.36
2023-04-27T13:39:28.478Z,11.36
2023-04-27T13:41:57.087Z,11.42
2023-04-27T13:44:25.060Z,11.34
2023-04-27T13:46:52.941Z,11.23
2023-04-27T13:49:23.438Z,11.17
2023-04-27T13:51:51.325Z,11.22
2023-04-27T13:54:21.171Z,11.26
2023-04-27T13:56:49.153Z,11.21
2023-04-27T13:59:16.940Z,11.22
2023-04-27T14:01:45.038Z,11.19
2023-04-27T14:04:13.042Z,11.20
2023-04-27T14:06:41.583Z,11.15
2023-04-27T14:09:09.364Z,11.07
2023-04-27T14:11:48.495Z,11.02
2023-04-27T14:14:06.929Z,10.96
2023-04-27T14:16:36.125Z,10.99
2023-04-27T14:19:03.825Z,11.09
2023-04-27T14:21:31.650Z,11.13
2023-04-27T14:23:59.285Z,11.08
2023-04-27T14:26:27.145Z,10.98
2023-04-27T14:28:58.497Z,10.92
2023-04-27T14:31:29.652Z,10.86
2023-04-27T14:33:57.281Z,10.86
2023-04-27T14:36:25.242Z,10.82
2023-04-27T14:38:52.894Z,10.83
2023-04-27T14:41:21.910Z,10.86
2023-04-27T14:43:49.714Z,10.82
2023-04-27T14:46:20.818Z,10.85
2023-04-27T14:48:48.618Z,10.86
2023-04-27T14:51:17.085Z,10.85
2023-04-27T14:53:49.788Z,10.82
2023-04-27T14:56:20.277Z,10.73
2023-04-27T14:58:48.317Z,10.65
2023-04-27T15:01:20.388Z,10.63
2023-04-27T15:03:50.494Z,10.57
2023-04-27T15:06:19.875Z,10.53
2023-04-27T15:08:49.620Z,10.52
2023-04-27T15:11:17.581Z,10.55
2023-04-27T15:13:45.211Z,10.51
2023-04-27T15:16:15.002Z,10.49
2023-04-27T15:18:43.137Z,10.45
2023-04-27T15:21:12.489Z,10.40
2023-04-27T15:23:43.201Z,10.35
2023-04-27T15:29:27.515Z,10.11
2023-04-27T15:31:55.344Z,10.01
2023-04-27T15:34:25.254Z,9.99
2023-04-27T15:36:54.882Z,9.96
2023-04-27T15:39:29.678Z,9.94
2023-04-27T15:46:24.133Z,9.82
2023-04-27T16:11:17.276Z,9.19
2023-04-27T16:13:48.874Z,9.13
2023-04-27T16:16:17.308Z,9.10
2023-04-27T16:18:45.293Z,9.04
2023-04-27T16:21:12.939Z,8.96
2023-04-27T16:23:40.792Z,8.88
2023-04-27T16:26:08.685Z,8.84
2023-04-27T16:28:36.586Z,8.80
2023-04-27T16:31:04.529Z,8.76
2023-04-27T16:33:33.583Z,8.74
2023-04-27T16:36:02.069Z,8.69
2023-04-27T16:38:29.864Z,8.65
2023-04-27T16:40:57.972Z,8.63
2023-04-27T16:43:25.548Z,8.59
2023-04-27T16:45:55.192Z,8.57
2023-04-27T16:48:23.927Z,8.55
2023-04-27T16:50:53.184Z,8.53
2023-04-27T16:53:21.688Z,8.53
2023-04-27T16:55:49.440Z,8.53
2023-04-27T16:58:21.341Z,8.50
2023-04-27T17:00:49.122Z,8.50
2023-04-27T17:03:18.509Z,8.50
2023-04-27T17:05:47.632Z,8.50
2023-04-27T17:08:18.405Z,8.50
2023-04-27T17:10:46.349Z,8.47
2023-04-27T17:13:16.917Z,8.43
2023-04-27T17:15:47.267Z,8.42
2023-04-27T17:18:16.535Z,8.38
2023-04-27T17:21:04.734Z,8.36
2023-04-27T17:23:40.983Z,8.32
2023-04-27T17:26:11.801Z,8.28
2023-04-27T17:28:46.762Z,8.22
2023-04-27T17:31:16.974Z,8.15
2023-04-27T17:33:48.196Z,8.09
2023-04-27T17:36:16.440Z,8.02
2023-04-27T17:38:43.822Z,7.97
2023-04-27T17:41:11.628Z,7.94
2023-04-27T17:43:39.266Z,7.90
2023-04-27T17:46:09.181Z,7.85
2023-04-27T17:48:41.697Z,7.80
2023-04-27T17:51:09.653Z,7.79
2023-04-27T17:53:40.410Z,7.77
2023-04-27T17:56:11.131Z,7.76
2023-04-27T17:58:39.282Z,7.74
2023-04-27T18:01:11.624Z,7.72
2023-04-27T18:03:41.329Z,7.70
2023-04-27T18:06:09.075Z,7.69
2023-04-27T18:08:40.295Z,7.70
2023-04-27T18:11:08.403Z,7.65
2023-04-27T18:13:37.254Z,7.62
2023-04-27T18:16:07.256Z,7.59
2023-04-27T18:18:35.778Z,7.57
2023-04-27T18:21:07.208Z,7.56
2023-04-27T18:23:40.735Z,7.53
2023-04-27T18:26:10.335Z,7.50
2023-04-27T18:28:39.661Z,7.50
2023-04-27T18:31:16.403Z,7.49
2023-04-27T18:33:45.125Z,7.47
2023-04-27T18:36:13.161Z,7.47
2023-04-27T18:38:43.438Z,7.48
2023-04-27T18:41:11.221Z,7.47
2023-04-27T18:43:42.875Z,7.48
2023-04-27T18:46:13.764Z,7.50
2023-04-27T18:48:45.872Z,7.50
2023-04-27T18:51:14.555Z,7.52
2023-04-27T18:53:42.301Z,7.51
2023-04-27T18:56:10.562Z,7.51
2023-04-27T18:58:40.056Z,7.51
2023-04-27T19:01:08.026Z,7.52
2023-04-27T19:03:36.922Z,7.49
2023-04-27T19:06:05.055Z,7.48
2023-04-27T19:08:34.065Z,7.49
2023-04-27T19:11:04.127Z,7.49
2023-04-27T19:13:32.049Z,7.49
2023-04-27T19:16:08.548Z,7.51
2023-04-27T19:18:37.545Z,7.51
2023-04-27T19:21:06.334Z,7.53
2023-04-27T19:23:35.503Z,7.53
2023-04-27T19:26:12.325Z,7.52
2023-04-27T19:28:33.777Z,7.51
2023-04-27T19:31:04.504Z,7.51
2023-04-27T19:33:35.389Z,7.49
2023-04-27T19:36:27.551Z,7.49
2023-04-27T19:38:56.967Z,7.49
2023-04-27T19:41:25.323Z,7.50
2023-04-27T19:43:53.564Z,7.50
2023-04-27T19:46:21.475Z,7.51
2023-04-27T19:48:49.237Z,7.51
2023-04-27T19:51:16.814Z,7.49
2023-04-27T19:53:44.954Z,7.47
2023-04-27T19:56:12.834Z,7.48
2023-04-27T19:58:42.147Z,7.49
2023-04-27T20:01:12.305Z,7.50
2023-04-27T20:03:40.185Z,7.51
2023-04-27T20:06:09.691Z,7.52
2023-04-27T20:08:37.394Z,7.54
2023-04-27T20:11:05.449Z,7.54
2023-04-27T20:13:33.193Z,7.54
2023-04-27T20:16:01.195Z,7.55
2023-04-27T20:18:30.857Z,7.55
2023-04-27T20:20:59.261Z,7.55
2023-04-27T20:23:27.543Z,7.52
2023-04-27T20:25:55.517Z,7.49
2023-04-27T20:28:25.373Z,7.42
2023-04-27T20:30:55.776Z,7.33
2023-04-27T20:33:24.364Z,7.27
2023-04-27T20:35:55.567Z,7.16
2023-04-27T20:38:23.740Z,7.10
2023-04-27T20:40:53.062Z,7.07
2023-04-27T20:43:26.163Z,7.05
2023-04-27T20:45:53.948Z,7.03
2023-04-27T20:48:28.467Z,6.99
2023-04-27T20:50:59.528Z,6.86
2023-04-27T20:53:27.863Z,6.92
2023-04-27T20:55:56.637Z,6.90
2023-04-27T20:58:25.865Z,6.86
2023-04-27T21:00:55.910Z,6.82
2023-04-27T21:03:26.227Z,6.79
2023-04-27T21:05:54.363Z,6.75
2023-04-27T21:08:22.446Z,6.73
2023-04-27T21:10:50.781Z,6.72
2023-04-27T21:13:19.274Z,6.69
2023-04-27T21:15:47.745Z,6.68
2023-04-27T21:18:29.105Z,6.69
2023-04-27T21:20:46.526Z,6.72
2023-04-27T21:23:14.986Z,6.73
2023-04-27T21:25:46.717Z,6.75
2023-04-27T21:28:15.042Z,6.78
2023-04-27T21:30:43.350Z,6.79
2023-04-27T21:33:11.429Z,6.82
2023-04-27T21:35:40.163Z,6.81
2023-04-27T21:38:08.183Z,6.81
2023-04-27T21:40:38.769Z,6.78
2023-04-27T21:43:07.330Z,6.76
2023-04-27T21:45:35.711Z,6.77
2023-04-27T21:48:05.897Z,6.76
2023-04-27T21:50:33.672Z,6.74
2023-04-27T21:53:01.450Z,6.74
2023-04-27T21:55:29.353Z,6.74
2023-04-27T21:57:57.174Z,6.70
2023-04-27T22:00:25.281Z,6.72
2023-04-27T22:02:55.400Z,6.69
2023-04-27T22:05:23.523Z,6.69
2023-04-27T22:07:52.937Z,6.65
2023-04-27T22:10:22.550Z,6.62
2023-04-27T22:12:50.460Z,6.59
2023-04-27T22:15:19.842Z,6.57
2023-04-27T22:17:47.889Z,6.54
2023-04-27T22:20:15.889Z,6.52
2023-04-27T22:22:44.230Z,6.50
2023-04-27T22:25:15.308Z,6.47
2023-04-27T22:27:45.476Z,6.44
2023-04-27T22:30:14.948Z,6.43
2023-04-27T22:32:45.227Z,6.41
2023-04-27T22:35:24.717Z,6.41
2023-04-27T22:37:46.924Z,6.41
2023-04-27T22:40:15.284Z,6.42
2023-04-27T22:42:43.285Z,6.43
2023-04-27T22:45:12.541Z,6.41
2023-04-27T22:47:40.944Z,6.40
2023-04-27T22:50:10.588Z,6.37
2023-04-27T22:52:41.596Z,6.38
2023-04-27T22:55:11.180Z,6.35
2023-04-27T22:57:39.747Z,6.32
2023-04-27T23:00:10.496Z,6.29
2023-04-27T23:02:39.875Z,6.30
2023-04-27T23:05:08.845Z,6.31
2023-04-27T23:07:36.741Z,6.31
2023-04-27T23:10:05.576Z,6.29
2023-04-27T23:12:33.602Z,6.27
2023-04-27T23:15:01.911Z,6.26
2023-04-27T23:17:32.713Z,6.28
2023-04-27T23:20:02.012Z,6.24
2023-04-27T23:22:29.822Z,6.17
2023-04-27T23:24:57.712Z,6.10
2023-04-27T23:27:25.523Z,6.04
2023-04-27T23:29:53.204Z,6.04
2023-04-27T23:32:21.202Z,6.02
2023-04-27T23:34:48.905Z,6.01
2023-04-27T23:37:16.757Z,5.97
2023-04-27T23:39:44.379Z,5.96
2023-04-27T23:42:12.177Z,5.94
2023-04-27T23:44:40.030Z,5.89
2023-04-27T23:47:08.252Z,5.83
2023-04-27T23:49:35.998Z,5.82
2023-04-27T23:52:04.584Z,5.80
2023-04-27T23:54:32.628Z,5.75
2023-04-27T23:57:00.870Z,5.72
2023-04-27T23:59:28.818Z,5.69
